To NAV CANADA Home Page Login to a new session Search on AWWS site Feedback and Comments Disclaimer Vers la page française équivalente Tips FAQ What's new on the site To the Forecasts and Observations / NOTAM section To "File a Flight Plan" website Publications and other links Update of the User's profile FIC Telephone Numbers My Weather Data Folder Route Weather Data Regional Weather Data Local Weather Data To the Forecasts and Observations / NOTAM section
Request Generated 04/24/2014 at 22:45:51 UTC . Weather information available at that time is displayed.

METAR/TAF

SASKATOON/JOHN G. DIEFENBAKER INTL/SK    

METAR CYXE 242200Z 02010KT 15SM OVC008 04/03 A2966 RMK SC8 SLP064=
METAR CYXE 242100Z 01013KT 15SM OVC008 04/03 A2964 RMK SC8 SLP057=
METAR CYXE 242000Z 30007KT 15SM -SHRA OVC010 05/03 A2962 RMK SC8
SLP050=

TAF AMD CYXE 242122Z 2421/2518 01010KT 5SM -RA BR OVC015 TEMPO
2421/2504 P6SM -RA OVC008
BECMG 2502/2504 08010KT
FM250400 08010KT 6SM -DZ BR OVC010 TEMPO 2504/2508 4SM -DZ BR
OVC005
FM250800 06008KT 3SM -SNRA BR OVC004
FM251600 05012KT 6SM -SNRA BR OVC008
RMK NXT FCST BY 250000Z=
Your time UTC time
Weather data provided by Environment Canada and NAV CANADA